This is the latest recevied weather packets stored in our database for station/object SP1BMW-13. If no packets are shown the sender has not sent any weather packets the latest 10 day(s).
| Time | Temp. | Humidity | Pressure | Rain* | Wind** | Luminosity | Snow |
|---|---|---|---|---|---|---|---|
| 1787389801 | 19.44° C | 60% | 1008.9 hPa | 0 mm | 2.24 m/s, 240° | 160 W/m² | - |
| 1787389741 | 19.44° C | 60% | 1008.7 hPa | 0 mm | 1.34 m/s, 2° | 163 W/m² | - |
| 1787389682 | 19.44° C | 59% | 1008.7 hPa | 0 mm | 2.68 m/s, 314° | 200 W/m² | - |
| 1787389622 | 19.44° C | 61% | 1008.6 hPa | 0 mm | 2.24 m/s, 214° | 602 W/m² | - |
| 1787389561 | 19.44° C | 60% | 1008.7 hPa | 0 mm | 2.24 m/s, 229° | 267 W/m² | - |
| 1787389502 | 19.44° C | 61% | 1008.7 hPa | 0 mm | 2.24 m/s, 222° | 614 W/m² | - |
| 1787389442 | 19.44° C | 61% | 1008.6 hPa | 0 mm | 1.79 m/s, 270° | 508 W/m² | - |
| 1787389382 | 19.44° C | 62% | 1008.5 hPa | 0 mm | 2.68 m/s, 193° | 181 W/m² | - |
| 1787389322 | 19.44° C | 63% | 1008.5 hPa | 0 mm | 1.34 m/s, 255° | 586 W/m² | - |
| 1787389262 | 19.44° C | 63% | 1008.6 hPa | 0 mm | 1.34 m/s, 252° | 586 W/m² | - |
| 1787389202 | 19.44° C | 63% | 1008.6 hPa | 0 mm | 1.79 m/s, 236° | 579 W/m² | - |
| 1787389142 | 19.44° C | 65% | 1008.7 hPa | 0 mm | 1.79 m/s, 342° | 582 W/m² | - |
| 1787389081 | 18.89° C | 68% | 1008.6 hPa | 0 mm | 0.45 m/s, 99° | 586 W/m² | - |
| 1787389022 | 18.89° C | 66% | 1008.6 hPa | 0 mm | 2.68 m/s, 206° | 581 W/m² | - |
| 1787388961 | 18.89° C | 67% | 1008.5 hPa | 0 mm | 0.89 m/s, 307° | 582 W/m² | - |
| 1787388902 | 18.89° C | 66% | 1008.7 hPa | 0 mm | 2.68 m/s, 246° | 583 W/m² | - |
| 1787388842 | 18.89° C | 66% | 1008.5 hPa | 0 mm | 1.34 m/s, 288° | 593 W/m² | - |
| 1787388782 | 18.89° C | 66% | 1008.4 hPa | 0 mm | 1.79 m/s, 307° | 592 W/m² | - |
| 1787388722 | 18.89° C | 65% | 1008.6 hPa | 0 mm | 0.89 m/s, 140° | 138 W/m² | - |
| 1787388662 | 19.44° C | 65% | 1008.6 hPa | 0 mm | 0.89 m/s, 245° | 129 W/m² | - |
| 1787388601 | 19.44° C | 63% | 1008.6 hPa | 0 mm | 1.79 m/s, 280° | 195 W/m² | - |
| 1787388542 | 19.44° C | 63% | 1008.4 hPa | 0 mm | 4.47 m/s, 248° | 564 W/m² | - |
| 1787388482 | 19.44° C | 64% | 1008.4 hPa | 0 mm | 1.34 m/s, 268° | 534 W/m² | - |
| 1787388422 | 19.44° C | 65% | 1008.7 hPa | 0 mm | 1.79 m/s, 313° | 430 W/m² | - |
| 1787388362 | 19.44° C | 65% | 1008.4 hPa | 0 mm | 2.68 m/s, 311° | 594 W/m² | - |
* Rain latest hour (hover to see other rain measurements)
** Current wind speed in m/s (hover to see current wind gust speed)